Time;durP1;ratioP1;P1;durP2;ratioP2;P2;SDS_P1;SDS_P2;PMS_P1;PMS_P2;Temp;Humidity;BMP_temperature;BMP_pressure;BME280_temperature;BME280_humidity;BME280_pressure;Samples;Min_cycle;Max_cycle;Signal;HPM_P1;HPM_P2
2022/09/03 00:00:18;;;;;;;3.28;1.20;;;20.10;49.90;;;;;;4972314;28;20034;-71
2022/09/03 00:03:00;;;;;;;3.78;1.17;;;20.00;50.00;;;;;;4976420;28;20037;-71
2022/09/03 00:05:42;;;;;;;3.75;1.08;;;20.00;49.90;;;;;;4992012;28;20050;-71
2022/09/03 00:08:20;;;;;;;3.85;1.38;;;20.00;50.00;;;;;;4979718;28;20039;-71
2022/09/03 00:11:18;;;;;;;2.72;1.17;;;19.90;51.00;;;;;;4972305;28;20034;-71
2022/09/03 00:14:24;;;;;;;4.45;1.20;;;19.90;50.40;;;;;;4979445;28;20093;-71
2022/09/03 00:17:03;;;;;;;9.65;1.90;;;19.80;50.60;;;;;;4988190;28;20038;-70
2022/09/03 00:19:33;;;;;;;7.55;1.20;;;19.80;51.00;;;;;;4980547;28;20369;-71
2022/09/03 00:22:06;;;;;;;3.58;1.38;;;19.80;50.70;;;;;;4991197;28;20026;-70
2022/09/03 00:24:37;;;;;;;3.58;0.93;;;19.80;50.70;;;;;;4981161;28;20029;-71
2022/09/03 00:27:11;;;;;;;4.25;1.33;;;19.80;50.90;;;;;;4989914;28;20048;-70
2022/09/03 00:30:07;;;;;;;2.30;1.15;;;19.70;50.80;;;;;;4985643;28;20035;-70
2022/09/03 00:32:46;;;;;;;4.68;1.67;;;19.70;50.70;;;;;;4972534;28;20504;-70
2022/09/03 00:35:41;;;;;;;3.80;1.27;;;19.60;50.70;;;;;;4980840;28;20019;-71
2022/09/03 00:38:08;;;;;;;3.03;1.17;;;19.70;50.70;;;;;;4987011;28;20019;-70
2022/09/03 00:41:05;;;;;;;4.18;0.90;;;19.60;50.70;;;;;;4980345;28;20027;-71
2022/09/03 00:44:07;;;;;;;3.03;1.20;;;19.60;51.60;;;;;;4975514;28;20089;-71
2022/09/03 00:46:51;;;;;;;4.28;1.17;;;19.50;50.90;;;;;;4988263;28;20029;-71
2022/09/03 00:49:26;;;;;;;4.45;1.27;;;19.50;51.40;;;;;;4980694;28;20038;-71
2022/09/03 00:52:17;;;;;;;5.47;1.15;;;19.50;52.00;;;;;;4990020;28;20023;-72
2022/09/03 00:55:04;;;;;;;6.47;1.50;;;19.40;51.60;;;;;;4978546;28;20023;-71
2022/09/03 00:57:53;;;;;;;5.93;1.40;;;19.40;51.30;;;;;;4990512;28;20022;-71
2022/09/03 01:00:20;;;;;;;3.58;1.20;;;19.40;51.80;;;;;;4984041;28;20023;-71
2022/09/03 01:03:06;;;;;;;3.45;1.10;;;19.40;51.60;;;;;;4971277;28;20092;-71
2022/09/03 01:05:49;;;;;;;3.25;1.40;;;19.40;51.80;;;;;;4961840;28;20041;-71
2022/09/03 01:08:37;;;;;;;3.30;1.45;;;19.40;51.70;;;;;;4990361;28;20041;-70
2022/09/03 01:11:03;;;;;;;5.97;1.67;;;19.30;51.80;;;;;;4986183;28;20625;-71
2022/09/03 01:13:31;;;;;;;3.72;1.38;;;19.30;52.10;;;;;;4971149;28;20082;-71
2022/09/03 01:16:29;;;;;;;2.97;1.20;;;19.30;52.40;;;;;;4985225;28;20378;-70
2022/09/03 01:19:13;;;;;;;2.90;1.00;;;19.30;52.30;;;;;;4968129;28;20137;-70
2022/09/03 01:21:46;;;;;;;4.13;1.45;;;19.30;51.90;;;;;;4981807;28;20023;-70
2022/09/03 01:24:45;;;;;;;4.18;1.15;;;19.20;52.00;;;;;;4971726;28;20037;-71
2022/09/03 01:27:48;;;;;;;3.05;0.80;;;19.20;53.00;;;;;;4982062;28;20026;-71
2022/09/03 01:30:18;;;;;;;5.70;1.30;;;19.10;52.10;;;;;;4984504;28;20030;-71
2022/09/03 01:32:55;;;;;;;6.22;1.30;;;19.10;52.30;;;;;;4975921;28;20551;-71
2022/09/03 01:35:35;;;;;;;5.05;1.40;;;19.10;52.20;;;;;;4978454;28;20073;-71
2022/09/03 01:38:16;;;;;;;;;;;19.00;52.50;;;;;;4975181;28;20434;-71
2022/09/03 01:40:53;;;;;;;3.00;1.20;;;19.00;52.30;;;;;;4972149;28;19906;-71
2022/09/03 01:43:50;;;;;;;4.35;1.10;;;19.00;52.60;;;;;;4986360;28;20389;-71
2022/09/03 01:46:25;;;;;;;2.67;1.00;;;19.00;52.70;;;;;;4985838;28;20023;-71
2022/09/03 01:49:21;;;;;;;3.58;1.48;;;19.00;52.80;;;;;;4970433;28;20104;-71
2022/09/03 01:52:17;;;;;;;3.83;1.23;;;18.90;52.70;;;;;;4976129;28;20493;-71
2022/09/03 01:54:50;;;;;;;6.70;1.90;;;18.90;52.70;;;;;;4952172;28;20125;-71
2022/09/03 01:57:44;;;;;;;4.00;1.38;;;18.80;52.70;;;;;;4981931;28;20019;-71
2022/09/03 02:00:12;;;;;;;5.55;1.48;;;18.80;52.70;;;;;;4970944;28;20047;-71
2022/09/03 02:02:40;;;;;;;6.60;1.15;;;18.80;53.00;;;;;;4985420;28;20019;-71
2022/09/03 02:05:13;;;;;;;6.55;1.40;;;18.80;53.00;;;;;;4970652;28;20033;-71
2022/09/03 02:07:45;;;;;;;4.97;1.42;;;18.70;52.90;;;;;;4967928;28;20505;-71
2022/09/03 02:10:20;;;;;;;3.20;0.90;;;18.70;53.00;;;;;;4989899;28;20057;-71
2022/09/03 02:12:51;;;;;;;1.90;0.98;;;18.70;53.20;;;;;;4977508;28;20088;-71
2022/09/03 02:15:21;;;;;;;2.50;1.30;;;18.70;53.40;;;;;;4974852;28;20026;-71
2022/09/03 02:17:48;;;;;;;5.18;1.02;;;18.60;53.20;;;;;;4981593;28;20031;-71
2022/09/03 02:20:26;;;;;;;3.40;1.52;;;18.60;53.30;;;;;;4970674;28;20023;-71
2022/09/03 02:22:53;;;;;;;3.22;1.27;;;18.60;53.50;;;;;;4976471;28;20141;-71
2022/09/03 02:25:20;;;;;;;3.50;1.40;;;18.60;53.50;;;;;;4989313;28;20033;-71
2022/09/03 02:27:48;;;;;;;5.43;1.45;;;18.50;53.60;;;;;;4977022;28;20117;-72
2022/09/03 02:30:13;;;;;;;4.85;1.30;;;18.50;53.80;;;;;;4989306;28;20068;-72
2022/09/03 02:32:39;;;;;;;4.00;1.17;;;18.50;53.80;;;;;;4979979;28;20019;-72
2022/09/03 02:35:06;;;;;;;3.80;1.27;;;18.40;53.80;;;;;;4974114;28;20042;-71
2022/09/03 02:37:31;;;;;;;3.85;1.40;;;18.40;53.70;;;;;;4985649;28;20793;-71
2022/09/03 02:39:57;;;;;;;2.33;1.40;;;18.40;53.90;;;;;;4957459;28;20173;-71
2022/09/03 02:42:23;;;;;;;2.55;1.15;;;18.40;54.10;;;;;;4974205;28;20022;-71
2022/09/03 02:44:58;;;;;;;3.33;1.45;;;18.40;53.80;;;;;;4981377;28;20054;-71
2022/09/03 02:47:30;;;;;;;3.92;1.40;;;18.30;53.80;;;;;;4987368;28;20157;-71
2022/09/03 02:49:56;;;;;;;4.28;1.33;;;18.30;54.20;;;;;;4977396;28;20030;-71
2022/09/03 02:52:22;;;;;;;2.90;1.15;;;18.30;54.20;;;;;;4972820;28;20050;-71
2022/09/03 02:54:48;;;;;;;3.22;1.40;;;18.30;54.10;;;;;;4978607;28;20105;-72
2022/09/03 02:57:15;;;;;;;4.18;1.15;;;18.30;54.20;;;;;;4988629;28;20497;-71
2022/09/03 02:59:43;;;;;;;3.25;1.40;;;18.30;54.60;;;;;;4978031;28;20038;-71
2022/09/03 03:02:10;;;;;;;2.45;1.00;;;18.20;54.20;;;;;;4988171;28;20026;-71
2022/09/03 03:04:36;;;;;;;3.65;1.10;;;18.30;54.70;;;;;;4977303;28;20030;-71
2022/09/03 03:07:02;;;;;;;3.42;1.40;;;18.20;54.30;;;;;;4989623;28;20023;-71
2022/09/03 03:09:28;;;;;;;3.35;1.30;;;18.10;55.00;;;;;;4974530;28;20027;-71
2022/09/03 03:11:54;;;;;;;7.38;1.45;;;18.10;54.40;;;;;;4954788;28;20053;-70
2022/09/03 03:14:21;;;;;;;7.75;1.63;;;18.10;54.50;;;;;;4978870;28;20076;-70
2022/09/03 03:16:47;;;;;;;1.83;0.90;;;18.10;54.60;;;;;;4973202;28;20029;-70
2022/09/03 03:19:14;;;;;;;8.15;1.70;;;18.10;54.70;;;;;;4974599;28;20799;-70
2022/09/03 03:21:40;;;;;;;3.08;1.17;;;18.10;54.70;;;;;;4990330;28;20023;-70
2022/09/03 03:24:06;;;;;;;5.13;1.20;;;18.00;54.80;;;;;;4979787;28;20027;-70
2022/09/03 03:26:32;;;;;;;2.58;1.00;;;18.00;54.60;;;;;;4987311;28;20026;-70
2022/09/03 03:29:00;;;;;;;3.28;1.48;;;18.00;54.60;;;;;;4969421;28;20077;-71
2022/09/03 03:31:26;;;;;;;2.92;1.10;;;18.00;54.70;;;;;;4985329;28;20061;-70
2022/09/03 03:34:00;;;;;;;3.90;1.60;;;18.00;55.00;;;;;;4991210;28;20037;-70
2022/09/03 03:36:29;;;;;;;2.25;1.17;;;17.90;54.90;;;;;;4986782;28;20053;-70
2022/09/03 03:38:56;;;;;;;5.40;1.75;;;17.90;54.90;;;;;;4991030;28;20517;-70
2022/09/03 03:41:30;;;;;;;3.63;1.30;;;17.90;54.90;;;;;;4981219;28;20083;-70
2022/09/03 03:43:58;;;;;;;4.55;2.10;;;17.80;55.00;;;;;;4990503;28;20425;-70
2022/09/03 03:46:24;;;;;;;2.47;1.13;;;17.80;55.10;;;;;;4981105;28;20854;-70
2022/09/03 03:48:51;;;;;;;5.00;1.50;;;17.90;55.10;;;;;;4990650;28;20061;-70
2022/09/03 03:51:18;;;;;;;3.95;1.70;;;17.80;55.10;;;;;;4983260;28;20030;-70
2022/09/03 03:53:44;;;;;;;5.78;1.30;;;17.80;55.10;;;;;;4972419;28;20038;-70
2022/09/03 03:56:12;;;;;;;5.03;1.40;;;17.80;55.10;;;;;;4979225;28;20054;-70
2022/09/03 03:58:42;;;;;;;3.00;1.10;;;17.80;55.30;;;;;;4974409;28;20478;-70
2022/09/03 04:01:22;;;;;;;4.00;1.30;;;17.80;55.20;;;;;;4978910;28;20052;-70
2022/09/03 04:03:48;;;;;;;4.00;1.70;;;17.80;55.40;;;;;;4991526;28;20030;-70
2022/09/03 04:06:17;;;;;;;2.88;1.20;;;17.80;55.40;;;;;;4978600;28;20336;-70
2022/09/03 04:08:44;;;;;;;6.13;1.60;;;17.70;55.50;;;;;;4991520;28;20046;-70
2022/09/03 04:11:12;;;;;;;3.47;1.15;;;17.70;55.30;;;;;;4980483;28;20089;-70
2022/09/03 04:13:40;;;;;;;3.00;1.35;;;17.70;56.10;;;;;;4990378;28;20045;-70
2022/09/03 04:16:14;;;;;;;3.22;1.17;;;17.60;55.70;;;;;;4980468;28;20022;-70
2022/09/03 04:18:40;;;;;;;4.50;1.17;;;17.60;55.60;;;;;;4972937;28;20035;-70
2022/09/03 04:21:12;;;;;;;2.85;1.25;;;17.60;55.60;;;;;;4978679;28;20496;-71
2022/09/03 04:23:42;;;;;;;5.95;1.40;;;17.60;55.70;;;;;;4988013;28;20497;-70
2022/09/03 04:26:11;;;;;;;2.50;1.02;;;17.60;55.60;;;;;;4985138;28;20076;-70
2022/09/03 04:28:37;;;;;;;2.90;0.93;;;17.60;57.00;;;;;;4986443;28;20389;-72
2022/09/03 04:31:05;;;;;;;2.60;1.00;;;17.70;57.40;;;;;;4987462;28;20033;-69
2022/09/03 04:33:31;;;;;;;4.32;1.13;;;17.70;57.60;;;;;;4961671;28;20031;-70
2022/09/03 04:36:07;;;;;;;6.70;1.65;;;17.80;57.90;;;;;;4976985;28;20027;-70
2022/09/03 04:38:35;;;;;;;5.22;1.25;;;17.80;57.90;;;;;;4977733;28;20831;-70
2022/09/03 04:41:01;;;;;;;7.10;1.73;;;17.90;57.90;;;;;;4977677;28;20500;-70
2022/09/03 04:43:27;;;;;;;10.98;1.40;;;18.00;58.00;;;;;;4982872;28;20027;-70
2022/09/03 04:46:01;;;;;;;11.35;1.77;;;18.00;58.10;;;;;;4980538;28;20027;-70
2022/09/03 04:48:28;;;;;;;13.85;2.22;;;18.10;58.10;;;;;;4987485;28;20521;-70
2022/09/03 04:51:02;;;;;;;19.98;2.67;;;18.10;58.10;;;;;;4988607;28;20037;-70
2022/09/03 04:53:27;;;;;;;16.70;2.17;;;18.10;57.90;;;;;;4981898;28;20021;-70
2022/09/03 04:55:53;;;;;;;13.85;2.00;;;18.10;57.70;;;;;;4978245;28;20039;-69
2022/09/03 04:58:18;;;;;;;13.40;2.47;;;18.10;57.90;;;;;;4984797;28;20030;-70
2022/09/03 05:00:44;;;;;;;17.90;2.85;;;18.10;58.20;;;;;;4978095;28;20035;-70
2022/09/03 05:03:10;;;;;;;16.05;1.95;;;18.10;58.20;;;;;;4981331;28;20080;-71
2022/09/03 05:05:35;;;;;;;11.00;1.63;;;18.10;58.20;;;;;;4983580;28;20026;-69
2022/09/03 05:08:02;;;;;;;13.35;2.65;;;18.10;58.20;;;;;;4985868;28;20034;-69
2022/09/03 05:10:30;;;;;;;3.30;1.27;;;18.10;58.20;;;;;;4985475;28;20905;-70
2022/09/03 05:13:05;;;;;;;6.55;1.35;;;18.10;56.80;;;;;;4985170;28;20050;-70
2022/09/03 05:15:31;;;;;;;3.47;1.35;;;18.00;56.10;;;;;;4977087;28;20690;-71
2022/09/03 05:18:03;;;;;;;4.35;1.05;;;18.00;55.20;;;;;;4979403;28;20014;-70
2022/09/03 05:20:30;;;;;;;3.47;1.10;;;17.90;55.00;;;;;;4962865;28;20069;-71
2022/09/03 05:22:56;;;;;;;4.78;1.30;;;17.90;55.30;;;;;;4979631;28;20027;-71
2022/09/03 05:25:22;;;;;;;4.43;1.70;;;17.70;55.10;;;;;;4979392;28;20389;-71
2022/09/03 05:27:49;;;;;;;5.75;1.20;;;17.70;55.30;;;;;;4978087;28;20030;-71
2022/09/03 05:30:15;;;;;;;1.98;1.10;;;17.70;55.20;;;;;;4980677;28;20073;-70
2022/09/03 05:32:41;;;;;;;1.73;0.90;;;17.60;55.60;;;;;;4980159;28;20477;-70
2022/09/03 05:35:09;;;;;;;2.53;0.90;;;17.60;55.50;;;;;;4981309;28;20098;-71
2022/09/03 05:37:36;;;;;;;4.28;1.30;;;17.60;55.90;;;;;;4979009;28;20030;-71
2022/09/03 05:40:02;;;;;;;5.63;1.38;;;17.60;55.70;;;;;;4981308;28;20376;-71
2022/09/03 05:42:28;;;;;;;2.72;0.90;;;17.60;55.70;;;;;;4981502;28;20030;-70
2022/09/03 05:44:54;;;;;;;3.58;1.10;;;17.60;56.00;;;;;;4982250;28;20034;-72
2022/09/03 05:47:20;;;;;;;3.40;1.00;;;17.60;55.60;;;;;;4981157;28;20052;-71
2022/09/03 05:49:46;;;;;;;3.03;1.23;;;17.60;56.00;;;;;;4977696;28;20019;-71
2022/09/03 05:52:12;;;;;;;1.98;1.10;;;17.70;55.80;;;;;;4990015;28;20441;-71
2022/09/03 05:54:38;;;;;;;3.75;1.20;;;17.70;55.80;;;;;;4976025;28;20027;-71
2022/09/03 05:57:03;;;;;;;3.00;0.88;;;17.80;55.50;;;;;;4988512;28;20034;-72
2022/09/03 05:59:29;;;;;;;2.80;1.00;;;17.80;55.60;;;;;;4980864;28;20025;-73
2022/09/03 06:01:57;;;;;;;3.28;1.23;;;17.80;55.30;;;;;;4986100;28;20393;-70
2022/09/03 06:04:24;;;;;;;4.65;0.90;;;17.90;56.10;;;;;;4982409;28;20136;-71
2022/09/03 06:06:49;;;;;;;2.67;1.02;;;17.90;55.40;;;;;;4983625;28;20401;-70
2022/09/03 06:09:20;;;;;;;2.83;1.00;;;17.90;55.40;;;;;;4988393;28;20022;-71
2022/09/03 06:11:48;;;;;;;3.55;1.60;;;18.00;55.30;;;;;;4977429;28;20034;-71
2022/09/03 06:14:15;;;;;;;3.60;1.00;;;18.00;55.10;;;;;;4985337;28;20034;-70
2022/09/03 06:16:48;;;;;;;3.78;0.90;;;18.00;55.00;;;;;;4989629;28;20385;-71
2022/09/03 06:19:14;;;;;;;3.22;1.13;;;18.00;54.90;;;;;;4987506;28;20014;-70
2022/09/03 06:21:44;;;;;;;3.78;1.23;;;18.10;54.90;;;;;;4972510;28;20058;-71
2022/09/03 06:24:15;;;;;;;3.20;1.08;;;18.20;54.90;;;;;;4986467;28;20038;-71
2022/09/03 06:26:41;;;;;;;3.95;1.02;;;18.30;55.00;;;;;;4963104;28;20542;-72
2022/09/03 06:29:07;;;;;;;4.00;1.30;;;18.30;54.60;;;;;;4969654;28;20031;-70
2022/09/03 06:31:33;;;;;;;3.95;1.30;;;18.40;54.60;;;;;;4978261;28;20022;-70
2022/09/03 06:34:00;;;;;;;2.10;1.00;;;18.50;54.60;;;;;;4987567;28;20030;-71
2022/09/03 06:36:27;;;;;;;3.15;1.15;;;18.60;54.30;;;;;;4982855;28;20034;-72
2022/09/03 06:38:55;;;;;;;6.78;1.42;;;18.60;54.50;;;;;;4970331;28;20023;-70
2022/09/03 06:41:26;;;;;;;5.93;1.63;;;18.60;54.40;;;;;;4985104;28;20029;-71
2022/09/03 06:44:03;;;;;;;2.38;1.25;;;18.80;54.30;;;;;;4989235;28;20015;-72
2022/09/03 06:46:30;;;;;;;4.30;1.30;;;18.90;53.80;;;;;;4984961;28;20030;-71
2022/09/03 06:48:56;;;;;;;3.38;0.90;;;19.00;53.60;;;;;;4986654;28;20054;-71
2022/09/03 06:51:25;;;;;;;2.58;1.00;;;19.10;54.00;;;;;;4985125;28;20014;-71
2022/09/03 06:53:53;;;;;;;5.47;1.23;;;19.20;53.30;;;;;;4981859;28;20455;-72
2022/09/03 06:56:25;;;;;;;3.72;1.52;;;19.20;53.30;;;;;;4970907;28;20384;-70
2022/09/03 06:58:55;;;;;;;3.75;1.30;;;19.20;53.10;;;;;;4990702;28;20076;-72
2022/09/03 07:01:24;;;;;;;2.95;1.35;;;19.30;53.20;;;;;;4977456;28;20022;-72
2022/09/03 07:03:55;;;;;;;3.58;1.35;;;19.50;52.90;;;;;;4979443;28;20191;-72
2022/09/03 07:06:22;;;;;;;3.17;1.17;;;19.60;52.60;;;;;;4976967;28;20114;-72
2022/09/03 07:08:48;;;;;;;5.88;1.33;;;19.60;52.40;;;;;;4984977;28;20177;-71
2022/09/03 07:11:18;;;;;;;4.15;1.10;;;19.70;52.70;;;;;;4976089;28;20094;-71
2022/09/03 07:13:46;;;;;;;3.25;1.33;;;19.70;52.30;;;;;;4981256;28;20031;-71
2022/09/03 07:16:17;;;;;;;4.25;1.27;;;19.80;52.20;;;;;;4964549;28;20077;-71
2022/09/03 07:18:44;;;;;;;4.72;1.38;;;20.00;52.00;;;;;;4985602;28;20126;-71
2022/09/03 07:21:12;;;;;;;6.78;2.08;;;20.10;51.60;;;;;;4974075;28;20019;-70
2022/09/03 07:23:38;;;;;;;3.65;1.10;;;20.10;51.80;;;;;;4983928;28;20026;-72
2022/09/03 07:26:08;;;;;;;5.63;1.27;;;20.20;51.90;;;;;;4955434;28;20048;-71
2022/09/03 07:28:36;;;;;;;3.10;1.50;;;20.40;51.60;;;;;;4988699;28;20030;-71
2022/09/03 07:31:11;;;;;;;3.95;1.20;;;20.30;51.10;;;;;;4992039;28;20080;-73
2022/09/03 07:33:41;;;;;;;3.97;1.48;;;20.50;51.40;;;;;;4983057;28;20027;-72
2022/09/03 07:36:09;;;;;;;2.88;1.13;;;20.60;51.40;;;;;;4985059;28;20152;-72
2022/09/03 07:38:35;;;;;;;3.20;1.55;;;20.80;51.30;;;;;;4978082;28;20030;-73
2022/09/03 07:41:04;;;;;;;3.00;1.40;;;20.90;51.30;;;;;;4978261;28;20063;-72
2022/09/03 07:43:38;;;;;;;5.38;1.10;;;21.00;50.80;;;;;;4984811;28;20018;-72
2022/09/03 07:46:05;;;;;;;6.03;2.05;;;21.20;50.80;;;;;;4980343;28;20067;-72
2022/09/03 07:48:31;;;;;;;4.88;1.48;;;21.30;50.00;;;;;;4984072;28;20058;-70
2022/09/03 07:51:01;;;;;;;6.97;1.20;;;21.40;50.00;;;;;;4982868;28;20014;-71
2022/09/03 07:53:28;;;;;;;9.57;1.67;;;21.50;49.90;;;;;;4962409;28;20030;-70
2022/09/03 07:56:04;;;;;;;2.72;1.25;;;21.60;49.50;;;;;;4982157;28;20104;-71
2022/09/03 07:58:34;;;;;;;3.58;1.10;;;21.70;49.70;;;;;;4983044;28;20033;-70
2022/09/03 08:01:05;;;;;;;4.57;1.50;;;21.80;49.60;;;;;;4983833;28;20026;-71
2022/09/03 08:03:31;;;;;;;2.60;1.00;;;21.80;49.70;;;;;;4983610;28;20113;-70
2022/09/03 08:06:04;;;;;;;4.47;1.00;;;22.00;50.50;;;;;;4986511;28;20121;-71
2022/09/03 08:08:31;;;;;;;5.35;1.08;;;22.20;50.20;;;;;;4989341;28;20041;-72
2022/09/03 08:11:20;;;;;;;6.95;1.98;;;22.50;49.80;;;;;;4986805;28;20035;-72
2022/09/03 08:14:00;;;;;;;7.90;2.13;;;22.60;48.30;;;;;;4982487;28;20081;-72
2022/09/03 08:16:26;;;;;;;;;;;22.60;46.70;;;;;;4974754;28;20026;-71
2022/09/03 08:18:52;;;;;;;3.47;1.45;;;22.70;47.90;;;;;;4977224;28;19906;-71
2022/09/03 08:21:19;;;;;;;3.63;1.83;;;22.80;47.00;;;;;;4981611;28;20106;-72
2022/09/03 08:23:47;;;;;;;5.47;1.58;;;22.90;46.40;;;;;;4985838;28;20042;-72
2022/09/03 08:26:14;;;;;;;4.63;1.23;;;22.90;46.70;;;;;;4978135;28;20054;-71
2022/09/03 08:28:41;;;;;;;3.83;1.48;;;23.00;47.90;;;;;;4972130;28;20409;-72
2022/09/03 08:31:11;;;;;;;3.55;1.23;;;23.10;46.50;;;;;;4980412;28;20041;-71
2022/09/03 08:33:41;;;;;;;4.00;1.50;;;23.20;46.90;;;;;;4972464;28;20093;-72
2022/09/03 08:36:16;;;;;;;2.38;1.10;;;23.40;46.50;;;;;;4982992;28;20026;-72
2022/09/03 08:38:44;;;;;;;2.90;0.90;;;23.60;46.10;;;;;;4988434;28;20039;-72
2022/09/03 08:41:15;;;;;;;6.68;1.50;;;23.90;46.30;;;;;;4978461;28;20072;-72
2022/09/03 08:44:14;;;;;;;2.95;1.23;;;24.10;44.70;;;;;;4988640;28;20061;-72
2022/09/03 08:46:50;;;;;;;3.30;1.13;;;24.10;44.60;;;;;;4989576;28;20080;-73
2022/09/03 08:49:39;;;;;;;2.13;0.90;;;24.20;43.60;;;;;;4989961;28;20038;-71
2022/09/03 08:52:17;;;;;;;6.85;1.33;;;24.30;46.50;;;;;;4981758;28;20086;-71
2022/09/03 08:54:43;;;;;;;2.72;0.90;;;24.40;45.90;;;;;;4973869;28;20030;-71
2022/09/03 08:57:11;;;;;;;4.63;1.10;;;24.30;43.60;;;;;;4980490;28;20114;-71
2022/09/03 08:59:36;;;;;;;5.53;0.90;;;24.50;45.60;;;;;;4972600;28;20026;-72
2022/09/03 09:02:15;;;;;;;5.15;1.42;;;24.70;48.30;;;;;;4980542;28;20019;-72
2022/09/03 09:04:53;;;;;;;4.80;1.30;;;24.80;45.60;;;;;;4973762;28;20037;-71
2022/09/03 09:07:44;;;;;;;4.03;1.17;;;24.90;45.60;;;;;;4979753;28;20665;-71
2022/09/03 09:10:35;;;;;;;3.38;1.02;;;25.10;45.00;;;;;;4974637;28;20022;-71
2022/09/03 09:13:27;;;;;;;4.13;1.42;;;25.30;43.90;;;;;;4984474;28;20396;-72
2022/09/03 09:15:52;;;;;;;4.55;1.23;;;25.60;44.00;;;;;;4981604;28;20026;-72
2022/09/03 09:18:21;;;;;;;4.85;1.42;;;25.80;43.40;;;;;;4959404;28;20031;-72
2022/09/03 09:20:51;;;;;;;3.55;1.33;;;25.90;45.80;;;;;;4956800;28;20466;-71
2022/09/03 09:23:32;;;;;;;2.10;0.90;;;26.00;42.30;;;;;;4977057;28;20027;-72
2022/09/03 09:26:04;;;;;;;4.70;1.67;;;26.20;43.70;;;;;;4981970;28;20110;-72
2022/09/03 09:28:37;;;;;;;3.30;1.30;;;26.40;42.70;;;;;;4983968;28;20041;-73
2022/09/03 09:31:11;;;;;;;3.85;1.27;;;26.50;42.00;;;;;;4984172;28;20023;-72
2022/09/03 09:33:36;;;;;;;9.75;1.13;;;26.40;40.50;;;;;;4978217;28;20093;-71
2022/09/03 09:36:07;;;;;;;5.63;1.23;;;26.40;44.70;;;;;;4978946;28;20469;-72
2022/09/03 09:38:36;;;;;;;5.50;1.40;;;26.50;44.10;;;;;;4982857;28;20156;-72
2022/09/03 09:41:19;;;;;;;3.47;1.23;;;26.50;43.60;;;;;;4988452;28;20082;-72
2022/09/03 09:43:46;;;;;;;6.97;1.38;;;26.70;46.40;;;;;;4964026;28;20512;-72
2022/09/03 09:46:19;;;;;;;5.40;1.20;;;26.80;43.40;;;;;;4987904;28;20029;-72
2022/09/03 09:49:23;;;;;;;4.68;1.23;;;26.80;42.30;;;;;;4980044;28;20065;-72
2022/09/03 09:52:00;;;;;;;8.45;1.80;;;27.00;40.40;;;;;;4973845;28;20505;-72
2022/09/03 09:54:26;;;;;;;4.75;1.55;;;27.10;46.50;;;;;;4974613;28;20054;-72
2022/09/03 09:57:22;;;;;;;5.75;1.13;;;27.30;43.00;;;;;;4974424;28;20570;-73
2022/09/03 09:59:49;;;;;;;5.45;1.08;;;27.50;45.80;;;;;;4972372;28;20039;-72
2022/09/03 10:02:25;;;;;;;7.45;1.13;;;27.60;43.50;;;;;;4974967;28;20042;-72
2022/09/03 10:04:52;;;;;;;3.95;0.98;;;27.70;47.30;;;;;;4975127;28;20026;-71
2022/09/03 10:07:18;;;;;;;4.00;1.90;;;27.80;41.70;;;;;;4974561;28;20080;-71
2022/09/03 10:09:45;;;;;;;7.05;1.30;;;27.90;42.50;;;;;;4982273;28;20046;-72
2022/09/03 10:12:23;;;;;;;2.75;1.20;;;27.80;42.40;;;;;;4987504;28;20050;-72
2022/09/03 10:14:54;;;;;;;2.60;1.15;;;27.80;43.30;;;;;;4976590;28;20101;-73
2022/09/03 10:17:34;;;;;;;7.72;1.10;;;27.80;44.90;;;;;;4985043;28;20482;-72
2022/09/03 10:20:30;;;;;;;;;;;28.00;44.70;;;;;;4982046;28;20050;-73
2022/09/03 10:23:00;;;;;;;4.50;1.33;;;28.20;44.10;;;;;;4970061;28;19910;-71
2022/09/03 10:25:37;;;;;;;5.55;1.13;;;28.30;43.90;;;;;;4987819;28;20033;-72
2022/09/03 10:28:04;;;;;;;1.80;0.93;;;28.40;46.80;;;;;;4987812;28;20057;-72
2022/09/03 10:30:39;;;;;;;4.95;1.35;;;28.50;44.60;;;;;;4987218;28;20161;-72
2022/09/03 10:33:15;;;;;;;6.80;1.27;;;28.50;41.80;;;;;;4986924;28;20027;-71
2022/09/03 10:35:51;;;;;;;5.47;0.80;;;28.50;44.60;;;;;;4977178;28;20073;-72
2022/09/03 10:38:27;;;;;;;5.10;1.10;;;28.50;41.30;;;;;;4977747;28;20022;-73
2022/09/03 10:41:23;;;;;;;1.80;0.70;;;28.50;42.50;;;;;;4986887;28;20022;-72
2022/09/03 10:44:22;;;;;;;2.30;1.08;;;28.40;44.50;;;;;;4986776;28;20026;-72
2022/09/03 10:47:40;;;;;;;1.92;0.73;;;28.60;42.00;;;;;;4992338;28;20037;-72
2022/09/03 10:50:30;;;;;;;3.17;1.00;;;28.80;46.10;;;;;;4887497;28;20041;-71
2022/09/03 10:53:09;;;;;;;2.55;0.93;;;28.90;38.80;;;;;;4962194;28;20054;-72
2022/09/03 10:56:07;;;;;;;3.63;1.47;;;28.90;43.80;;;;;;4991052;28;20014;-72
2022/09/03 10:58:47;;;;;;;3.22;0.77;;;29.00;39.60;;;;;;4991409;28;20026;-72
2022/09/03 11:01:25;;;;;;;4.05;1.55;;;29.10;45.40;;;;;;4984047;28;20041;-71
2022/09/03 11:04:02;;;;;;;3.78;1.35;;;29.10;45.10;;;;;;4990554;28;20026;-72
2022/09/03 11:06:34;;;;;;;3.67;0.98;;;29.10;46.20;;;;;;4993738;28;20057;-72
2022/09/03 11:09:11;;;;;;;2.15;0.82;;;29.20;46.20;;;;;;4993141;28;20176;-72
2022/09/03 11:11:56;;;;;;;3.15;0.90;;;29.20;43.40;;;;;;4982920;28;20106;-72
2022/09/03 11:14:38;;;;;;;2.42;0.82;;;29.30;45.50;;;;;;4979583;28;20022;-72
2022/09/03 11:17:19;;;;;;;3.55;1.10;;;29.40;44.60;;;;;;4993667;28;20034;-73
2022/09/03 11:19:50;;;;;;;3.47;0.90;;;29.50;40.50;;;;;;4988234;28;20035;-73
2022/09/03 11:22:17;;;;;;;4.82;1.23;;;29.60;44.20;;;;;;4987093;28;20088;-73
2022/09/03 11:24:52;;;;;;;3.75;1.20;;;29.70;44.50;;;;;;4989432;28;20018;-72
2022/09/03 11:27:39;;;;;;;2.65;0.85;;;29.90;44.10;;;;;;4985413;28;20034;-72
2022/09/03 11:30:08;;;;;;;2.42;0.75;;;30.10;44.70;;;;;;4988707;28;20062;-73
2022/09/03 11:32:48;;;;;;;2.70;0.83;;;30.30;43.90;;;;;;4991821;28;20039;-72
2022/09/03 11:35:41;;;;;;;3.53;1.00;;;30.30;41.00;;;;;;4989514;28;20109;-73
2022/09/03 11:38:15;;;;;;;3.53;0.90;;;30.20;45.70;;;;;;4977521;28;20023;-72
2022/09/03 11:41:13;;;;;;;1.83;0.82;;;30.20;38.00;;;;;;4980527;28;20031;-73
2022/09/03 11:43:39;;;;;;;3.80;0.93;;;30.20;39.40;;;;;;4974475;28;20490;-72
2022/09/03 11:46:24;;;;;;;2.10;0.80;;;30.30;45.80;;;;;;4983827;28;20038;-73
2022/09/03 11:48:51;;;;;;;5.80;1.33;;;30.30;46.30;;;;;;4982317;28;20112;-73
2022/09/03 11:51:32;;;;;;;4.45;1.27;;;30.50;37.70;;;;;;4991141;28;20026;-72
2022/09/03 11:54:01;;;;;;;1.70;0.60;;;30.50;40.20;;;;;;4988514;28;20108;-74
2022/09/03 11:56:28;;;;;;;;;;;30.50;42.10;;;;;;4981542;28;20486;-72
2022/09/03 11:59:12;;;;;;;2.38;0.88;;;30.60;39.20;;;;;;4989248;28;19905;-72
2022/09/03 12:01:55;;;;;;;1.65;0.85;;;30.50;39.90;;;;;;4975471;28;20058;-73
2022/09/03 12:04:47;;;;;;;3.28;0.73;;;30.50;42.80;;;;;;4992308;28;20080;-73
2022/09/03 12:07:37;;;;;;;6.15;1.30;;;30.50;43.50;;;;;;4988158;28;20421;-73
2022/09/03 12:10:39;;;;;;;2.70;0.90;;;30.50;37.10;;;;;;4973653;28;20031;-72
2022/09/03 12:13:23;;;;;;;3.95;1.00;;;30.40;37.90;;;;;;4953649;28;20036;-72
2022/09/03 12:16:13;;;;;;;3.00;1.30;;;30.40;40.40;;;;;;4983521;28;20090;-72
2022/09/03 12:18:40;;;;;;;4.90;1.15;;;30.30;35.80;;;;;;4981597;28;20027;-71
2022/09/03 12:21:08;;;;;;;5.03;1.00;;;30.30;39.30;;;;;;4990742;28;20018;-71
2022/09/03 12:23:48;;;;;;;3.08;0.73;;;30.30;39.90;;;;;;4985561;28;20110;-72
2022/09/03 12:26:26;;;;;;;2.10;0.82;;;30.40;41.90;;;;;;4972474;28;20512;-72
2022/09/03 12:29:01;;;;;;;2.75;0.80;;;30.50;44.70;;;;;;4982707;28;20047;-72
2022/09/03 12:31:33;;;;;;;3.95;0.85;;;30.70;44.80;;;;;;4973551;28;20061;-72
2022/09/03 12:34:14;;;;;;;3.63;1.10;;;30.90;39.60;;;;;;4991503;28;20121;-72
2022/09/03 12:36:51;;;;;;;2.97;1.13;;;31.00;38.70;;;;;;4977184;28;20049;-73
2022/09/03 12:39:23;;;;;;;4.30;1.30;;;31.00;41.60;;;;;;4985558;28;20109;-73
2022/09/03 12:42:04;;;;;;;2.72;1.17;;;30.90;37.90;;;;;;4977114;28;20027;-73
2022/09/03 12:44:34;;;;;;;2.45;0.90;;;30.90;35.80;;;;;;4953835;28;20031;-72
2022/09/03 12:47:23;;;;;;;3.45;0.90;;;30.90;45.20;;;;;;4956526;28;20130;-72
2022/09/03 12:50:26;;;;;;;4.30;1.17;;;31.10;37.90;;;;;;4991997;28;20105;-72
2022/09/03 12:53:03;;;;;;;3.75;1.17;;;31.20;43.00;;;;;;4987125;28;20272;-71
2022/09/03 12:55:40;;;;;;;3.10;0.93;;;31.30;39.30;;;;;;4972644;28;20030;-71
2022/09/03 12:58:25;;;;;;;3.08;1.00;;;31.40;44.30;;;;;;4976875;28;20026;-72
2022/09/03 13:01:09;;;;;;;2.58;0.82;;;31.60;45.20;;;;;;4976054;28;20023;-72
2022/09/03 13:03:56;;;;;;;2.65;1.15;;;31.80;42.10;;;;;;4975566;28;20019;-73
2022/09/03 13:06:25;;;;;;;3.17;1.00;;;31.90;40.90;;;;;;4970538;28;20023;-73
2022/09/03 13:08:57;;;;;;;3.67;1.35;;;31.90;39.10;;;;;;4983954;28;20377;-73
2022/09/03 13:11:24;;;;;;;5.43;1.20;;;31.80;37.10;;;;;;4984346;28;20026;-71
2022/09/03 13:14:05;;;;;;;5.05;1.20;;;31.70;39.90;;;;;;4986657;28;20026;-72
2022/09/03 13:16:44;;;;;;;3.00;1.15;;;31.60;38.40;;;;;;4973990;28;20034;-72
2022/09/03 13:19:34;;;;;;;2.70;0.98;;;31.60;41.70;;;;;;4979683;28;20033;-71
2022/09/03 13:22:18;;;;;;;2.15;0.80;;;31.50;42.70;;;;;;4971382;28;20112;-71